createdAt,value
2022-09-21T00:02:09.391Z,76.00
2022-09-21T00:04:35.872Z,73.53
2022-09-21T00:07:02.214Z,72.61
2022-09-21T00:09:28.539Z,72.45
2022-09-21T00:11:58.150Z,73.46
2022-09-21T00:14:24.755Z,72.94
2022-09-21T00:16:51.098Z,72.16
2022-09-21T00:19:18.814Z,74.04
2022-09-21T00:21:45.187Z,74.45
2022-09-21T00:24:11.574Z,74.67
2022-09-21T00:26:37.947Z,73.13
2022-09-21T00:29:04.720Z,73.39
2022-09-21T00:31:31.715Z,74.99
2022-09-21T00:33:59.025Z,74.47
2022-09-21T00:36:27.263Z,73.97
2022-09-21T00:38:55.690Z,72.86
2022-09-21T00:41:22.856Z,73.59
2022-09-21T00:44:24.979Z,73.12
2022-09-21T00:46:55.799Z,72.74
2022-09-21T00:49:24.641Z,72.47
2022-09-21T00:51:53.043Z,74.61
2022-09-21T00:54:25.171Z,74.47
2022-09-21T00:56:51.688Z,73.02
2022-09-21T00:59:21.560Z,73.50
2022-09-21T01:01:48.703Z,73.02
2022-09-21T01:04:15.790Z,73.47
2022-09-21T01:06:42.744Z,73.03
2022-09-21T01:09:10.884Z,72.38
2022-09-21T01:11:47.922Z,73.19
2022-09-21T01:14:30.152Z,73.48
2022-09-21T01:17:06.667Z,74.04
2022-09-21T01:19:55.690Z,73.15
2022-09-21T01:22:36.714Z,73.29
2022-09-21T01:25:19.263Z,73.18
2022-09-21T01:28:01.942Z,73.64
2022-09-21T01:30:33.201Z,73.61
2022-09-21T01:33:04.899Z,73.51
2022-09-21T01:35:35.718Z,73.35
2022-09-21T01:38:05.140Z,73.30
2022-09-21T01:40:36.182Z,73.74
2022-09-21T01:43:06.112Z,73.59
2022-09-21T01:45:38.237Z,73.97
2022-09-21T01:48:05.468Z,74.13
2022-09-21T01:50:35.198Z,73.84
2022-09-21T01:53:06.956Z,74.09
2022-09-21T01:55:40.555Z,73.25
2022-09-21T01:58:11.960Z,73.35
2022-09-21T02:00:41.984Z,72.57
2022-09-21T02:03:13.752Z,73.15
2022-09-21T02:05:41.452Z,73.77
2022-09-21T02:08:09.066Z,73.67
2022-09-21T02:10:40.061Z,73.49
2022-09-21T02:13:08.160Z,73.38
2022-09-21T02:15:55.163Z,73.76
2022-09-21T02:18:33.064Z,74.09
2022-09-21T02:21:03.065Z,74.86
2022-09-21T02:23:37.258Z,74.29
2022-09-21T02:26:09.758Z,73.71
2022-09-21T02:28:43.370Z,74.07
2022-09-21T02:31:17.791Z,73.27
2022-09-21T02:33:52.932Z,73.67
2022-09-21T02:36:25.912Z,74.04
2022-09-21T02:38:56.754Z,73.90
2022-09-21T02:41:27.972Z,73.55
2022-09-21T02:44:03.580Z,74.90
2022-09-21T02:46:37.221Z,74.55
2022-09-21T02:49:07.620Z,74.08
2022-09-21T02:51:39.726Z,74.29
2022-09-21T02:54:09.343Z,75.32
2022-09-21T02:56:36.784Z,73.74
2022-09-21T02:59:05.762Z,73.06
2022-09-21T03:01:34.653Z,73.52
2022-09-21T03:04:01.802Z,74.20
2022-09-21T03:06:28.366Z,74.04
2022-09-21T03:08:54.774Z,73.26
2022-09-21T03:11:21.166Z,72.83
2022-09-21T03:13:47.587Z,73.39
2022-09-21T03:16:14.429Z,73.98
2022-09-21T03:18:42.487Z,73.40
2022-09-21T03:21:08.844Z,73.51
2022-09-21T03:23:35.328Z,73.57
2022-09-21T03:26:01.936Z,73.76
2022-09-21T03:28:28.421Z,73.93
2022-09-21T03:30:54.810Z,74.76
2022-09-21T03:33:21.324Z,74.13
2022-09-21T03:35:49.427Z,74.85
2022-09-21T03:38:15.794Z,74.12
2022-09-21T03:40:44.870Z,73.12
2022-09-21T03:43:11.406Z,72.82
2022-09-21T03:45:37.763Z,73.14
2022-09-21T03:48:04.121Z,74.04
2022-09-21T03:50:30.514Z,74.41
2022-09-21T03:52:58.520Z,73.94
2022-09-21T03:55:25.363Z,74.49
2022-09-21T03:57:51.880Z,73.79
2022-09-21T04:00:18.226Z,73.78
2022-09-21T04:02:44.703Z,73.24
2022-09-21T04:05:13.483Z,73.34
2022-09-21T04:07:40.827Z,73.40
2022-09-21T04:10:11.567Z,74.11
2022-09-21T04:12:37.953Z,74.23
2022-09-21T04:15:08.707Z,74.43
2022-09-21T04:17:35.229Z,73.76
2022-09-21T04:20:02.147Z,74.10
2022-09-21T04:22:28.505Z,73.51
2022-09-21T04:24:54.896Z,72.76
2022-09-21T04:27:22.703Z,73.37
2022-09-21T04:29:49.170Z,73.57
2022-09-21T04:32:15.535Z,72.68
2022-09-21T04:34:41.928Z,73.52
2022-09-21T04:37:09.664Z,74.26
2022-09-21T04:39:36.102Z,74.18
2022-09-21T04:42:02.471Z,73.65
2022-09-21T04:44:30.193Z,73.97
2022-09-21T04:46:56.560Z,74.07
2022-09-21T04:49:22.962Z,74.20
2022-09-21T04:51:49.324Z,73.34
2022-09-21T04:54:16.065Z,73.60
2022-09-21T04:56:42.429Z,73.06
2022-09-21T04:59:08.801Z,73.33
2022-09-21T05:01:36.563Z,74.11
2022-09-21T05:04:03.187Z,73.57
2022-09-21T05:06:30.149Z,73.51
2022-09-21T05:08:56.760Z,73.63
2022-09-21T05:11:23.724Z,73.66
2022-09-21T05:13:50.867Z,74.30
2022-09-21T05:16:18.304Z,72.78
2022-09-21T05:18:46.316Z,73.58
2022-09-21T05:21:14.319Z,72.27
2022-09-21T05:23:41.262Z,72.59
2022-09-21T05:26:07.762Z,72.89
2022-09-21T05:28:39.704Z,73.52
2022-09-21T05:31:19.580Z,73.86
2022-09-21T05:33:51.783Z,73.80
2022-09-21T05:36:36.316Z,74.26
2022-09-21T05:39:03.621Z,73.75
2022-09-21T05:41:30.760Z,74.12
2022-09-21T05:43:57.658Z,73.79
2022-09-21T05:46:37.542Z,73.62
2022-09-21T05:49:13.836Z,72.93
2022-09-21T05:51:48.435Z,73.61
2022-09-21T05:54:21.370Z,74.37
2022-09-21T05:56:53.656Z,73.81
2022-09-21T05:59:45.327Z,72.96
2022-09-21T06:02:22.517Z,73.01
2022-09-21T06:04:51.486Z,73.33
2022-09-21T06:07:17.863Z,73.57
2022-09-21T06:09:44.188Z,72.47
2022-09-21T06:12:10.980Z,71.14
2022-09-21T06:14:37.455Z,69.93
2022-09-21T06:17:04.363Z,70.25
2022-09-21T06:19:30.788Z,71.25
2022-09-21T06:21:58.438Z,71.91
2022-09-21T06:24:25.323Z,72.07
2022-09-21T06:26:51.758Z,71.87
2022-09-21T06:29:18.092Z,70.92
2022-09-21T06:31:44.467Z,72.31
2022-09-21T06:34:10.830Z,71.11
2022-09-21T06:36:37.175Z,72.11
2022-09-21T06:39:04.878Z,71.02
2022-09-21T06:41:31.223Z,71.50
2022-09-21T06:43:57.604Z,70.54
2022-09-21T06:46:24.203Z,71.19
2022-09-21T06:48:50.581Z,70.37
2022-09-21T06:51:16.939Z,70.61
2022-09-21T06:53:43.287Z,70.38
2022-09-21T06:56:11.009Z,70.13
2022-09-21T06:58:37.540Z,71.58
2022-09-21T07:01:05.804Z,70.01
2022-09-21T07:03:32.296Z,69.76
2022-09-21T07:05:58.729Z,69.80
2022-09-21T07:11:13.253Z,70.81
2022-09-21T07:13:39.869Z,70.33
2022-09-21T07:16:08.255Z,69.53
2022-09-21T07:18:43.249Z,71.25
2022-09-21T07:21:11.305Z,69.70
2022-09-21T07:23:38.055Z,69.48
2022-09-21T07:26:07.128Z,70.37
2022-09-21T07:28:35.501Z,69.53
2022-09-21T07:31:06.460Z,68.54
2022-09-21T07:33:35.886Z,69.13
2022-09-21T07:36:03.964Z,69.04
2022-09-21T07:38:30.359Z,68.17
2022-09-21T07:40:56.722Z,68.90
2022-09-21T07:43:23.214Z,67.75
2022-09-21T07:45:54.652Z,67.54
2022-09-21T07:48:21.165Z,69.10
2022-09-21T07:50:47.720Z,67.69
2022-09-21T07:53:14.103Z,68.02
2022-09-21T07:55:40.423Z,67.99
2022-09-21T07:58:06.755Z,67.98
2022-09-21T08:00:33.200Z,66.89
2022-09-21T08:03:00.922Z,68.09
2022-09-21T08:05:27.371Z,67.28
2022-09-21T08:07:55.551Z,65.88
2022-09-21T08:10:21.899Z,66.42
2022-09-21T08:12:48.246Z,65.80
2022-09-21T08:15:36.987Z,64.80
2022-09-21T08:18:03.903Z,64.80
2022-09-21T08:20:30.630Z,64.48
2022-09-21T08:22:56.968Z,65.14
2022-09-21T08:25:23.464Z,65.18
2022-09-21T08:27:49.830Z,66.12
2022-09-21T08:30:16.577Z,64.15
2022-09-21T08:32:50.958Z,63.29
2022-09-21T08:35:18.988Z,63.12
2022-09-21T08:37:45.321Z,66.55
2022-09-21T08:40:12.252Z,64.03
2022-09-21T08:42:42.096Z,65.02
2022-09-21T08:45:14.375Z,64.96
2022-09-21T08:47:44.017Z,64.24
2022-09-21T08:50:29.194Z,63.45
2022-09-21T08:53:01.426Z,65.51
2022-09-21T08:55:27.792Z,65.41
2022-09-21T08:57:54.198Z,63.16
2022-09-21T09:00:20.940Z,62.64
2022-09-21T09:03:17.716Z,64.60
2022-09-21T09:05:53.169Z,63.25
2022-09-21T09:08:42.968Z,61.94
2022-09-21T09:11:21.362Z,60.92
2022-09-21T09:14:01.718Z,61.05
2022-09-21T09:16:36.868Z,60.60
2022-09-21T09:19:17.563Z,61.52
2022-09-21T09:21:46.193Z,62.98
2022-09-21T09:24:16.681Z,61.40
2022-09-21T09:26:48.913Z,58.95
2022-09-21T09:29:20.914Z,58.81
2022-09-21T09:31:48.647Z,59.07
2022-09-21T09:34:21.334Z,59.93
2022-09-21T09:36:58.884Z,59.70
2022-09-21T09:39:29.351Z,56.92
2022-09-21T09:42:10.367Z,56.08
2022-09-21T09:44:52.955Z,55.09
2022-09-21T09:47:34.127Z,55.13
2022-09-21T09:50:06.222Z,55.64
2022-09-21T09:52:34.646Z,56.35
2022-09-21T09:55:11.521Z,54.47
2022-09-21T09:57:38.076Z,54.21
2022-09-21T10:00:06.865Z,56.21
2022-09-21T10:02:45.115Z,57.36
2022-09-21T10:05:20.596Z,55.43
2022-09-21T10:07:48.792Z,54.37
2022-09-21T10:10:40.317Z,53.68
2022-09-21T10:13:13.215Z,54.43
2022-09-21T10:15:43.759Z,53.88
2022-09-21T10:18:20.189Z,53.38
2022-09-21T10:20:58.497Z,51.55
2022-09-21T10:23:28.511Z,53.02
2022-09-21T10:25:58.533Z,50.20
2022-09-21T10:28:25.634Z,52.22
2022-09-21T10:31:09.097Z,50.86
2022-09-21T10:33:47.298Z,53.02
2022-09-21T10:36:26.476Z,49.55
2022-09-21T10:38:54.290Z,50.80
2022-09-21T10:41:21.141Z,49.83
2022-09-21T10:43:49.118Z,49.37
2022-09-21T10:46:15.608Z,49.66
2022-09-21T10:48:45.153Z,48.61
2022-09-21T10:51:26.139Z,50.79
2022-09-21T10:53:54.675Z,48.06
2022-09-21T10:56:21.147Z,50.37
2022-09-21T10:59:10.869Z,48.29
2022-09-21T11:01:43.717Z,47.79
2022-09-21T11:04:14.560Z,50.24
2022-09-21T11:06:43.891Z,50.91
2022-09-21T11:09:19.126Z,50.21
2022-09-21T11:11:52.436Z,50.88
2022-09-21T11:14:34.641Z,50.48
2022-09-21T11:17:07.259Z,50.92
2022-09-21T11:19:39.971Z,52.06
2022-09-21T11:22:14.899Z,51.06
2022-09-21T11:24:50.133Z,51.43
2022-09-21T11:27:21.350Z,48.73
2022-09-21T11:29:55.246Z,51.74
2022-09-21T11:32:44.167Z,50.33
2022-09-21T11:35:40.326Z,49.68
2022-09-21T11:38:12.967Z,49.11
2022-09-21T11:41:03.712Z,47.13
2022-09-21T11:43:55.182Z,47.83
2022-09-21T11:46:26.122Z,48.31
2022-09-21T11:49:05.801Z,45.59
2022-09-21T11:51:46.039Z,45.45
2022-09-21T11:54:40.461Z,45.88
2022-09-21T11:57:13.858Z,46.16
2022-09-21T11:59:53.400Z,45.83
2022-09-21T12:02:43.506Z,46.33
2022-09-21T12:05:18.046Z,43.85
2022-09-21T12:08:10.551Z,45.86
2022-09-21T12:10:39.569Z,45.68
2022-09-21T12:13:17.522Z,45.96
2022-09-21T12:15:51.966Z,45.67
2022-09-21T12:18:26.108Z,46.00
2022-09-21T12:21:01.307Z,44.46
2022-09-21T12:23:35.965Z,43.79
2022-09-21T12:26:05.179Z,43.55
2022-09-21T12:28:39.938Z,42.85
2022-09-21T12:31:11.986Z,43.33
2022-09-21T12:33:44.534Z,41.95
2022-09-21T12:36:16.329Z,43.12
2022-09-21T12:38:47.971Z,42.76
2022-09-21T12:41:18.507Z,44.22
2022-09-21T12:43:51.730Z,43.17
2022-09-21T12:46:23.002Z,44.04
2022-09-21T12:48:49.407Z,43.21
2022-09-21T12:51:21.916Z,43.45
2022-09-21T12:53:52.465Z,42.46
2022-09-21T12:56:29.695Z,43.11
2022-09-21T12:59:09.134Z,43.53
2022-09-21T13:01:42.415Z,43.21
2022-09-21T13:04:31.330Z,42.23
2022-09-21T13:07:28.399Z,43.54
2022-09-21T13:09:54.920Z,42.25
2022-09-21T13:12:24.595Z,41.83
2022-09-21T13:14:57.637Z,43.11
2022-09-21T13:17:29.081Z,42.99
2022-09-21T13:19:58.852Z,43.70
2022-09-21T13:22:26.686Z,43.67
2022-09-21T13:25:01.120Z,42.78
2022-09-21T13:27:59.112Z,41.59
2022-09-21T13:30:34.120Z,42.10
2022-09-21T13:33:01.681Z,42.22
2022-09-21T13:36:01.635Z,41.79
2022-09-21T13:38:31.053Z,42.38
2022-09-21T13:40:59.340Z,41.60
2022-09-21T13:43:45.625Z,41.80
2022-09-21T13:46:46.048Z,41.18
2022-09-21T13:49:19.872Z,40.65
2022-09-21T13:51:57.293Z,40.41
2022-09-21T13:54:27.527Z,40.29
2022-09-21T13:57:00.726Z,40.27
2022-09-21T13:59:27.334Z,41.96
2022-09-21T14:01:55.365Z,41.26
2022-09-21T14:04:26.533Z,41.95
2022-09-21T14:06:55.558Z,41.14
2022-09-21T14:09:25.955Z,41.19
2022-09-21T14:11:58.020Z,40.66
2022-09-21T14:14:30.456Z,40.73
2022-09-21T14:16:59.744Z,40.79
2022-09-21T14:20:02.514Z,41.46
2022-09-21T14:22:42.627Z,40.30
2022-09-21T14:25:43.665Z,40.58
2022-09-21T14:28:12.978Z,41.60
2022-09-21T14:30:40.250Z,39.89
2022-09-21T14:33:17.660Z,40.28
2022-09-21T14:35:45.508Z,40.62
2022-09-21T14:38:18.714Z,40.62
2022-09-21T14:40:48.118Z,40.00
2022-09-21T14:43:20.283Z,40.35
2022-09-21T14:45:58.203Z,41.55
2022-09-21T14:48:36.270Z,41.60
2022-09-21T14:51:11.956Z,40.97
2022-09-21T14:53:57.480Z,41.90
2022-09-21T14:56:42.668Z,43.54
2022-09-21T14:59:25.973Z,42.04
2022-09-21T15:01:56.346Z,41.87
2022-09-21T15:04:45.308Z,42.12
2022-09-21T15:07:25.003Z,41.43
2022-09-21T15:10:14.233Z,40.85
2022-09-21T15:12:47.386Z,41.00
2022-09-21T15:15:29.571Z,41.67
2022-09-21T15:17:59.655Z,41.64
2022-09-21T15:20:29.855Z,41.43
2022-09-21T15:22:57.238Z,41.60
2022-09-21T15:25:25.476Z,43.18
2022-09-21T15:27:52.513Z,41.61
2022-09-21T15:30:21.740Z,42.32
2022-09-21T15:32:52.439Z,41.75
2022-09-21T15:35:21.438Z,41.63
2022-09-21T15:37:50.306Z,41.51
2022-09-21T15:40:20.146Z,41.28
2022-09-21T15:43:05.400Z,41.47
2022-09-21T15:45:34.720Z,42.07
2022-09-21T15:48:02.163Z,40.85
2022-09-21T15:50:29.064Z,41.20
2022-09-21T15:53:03.070Z,40.80
2022-09-21T15:55:29.725Z,41.12
2022-09-21T15:57:57.274Z,41.57
2022-09-21T16:00:25.964Z,41.96
2022-09-21T16:03:03.342Z,40.28
2022-09-21T16:05:31.687Z,40.68
2022-09-21T16:08:07.079Z,41.29
2022-09-21T16:10:39.310Z,42.38
2022-09-21T16:13:13.486Z,41.49
2022-09-21T16:15:40.106Z,42.43
2022-09-21T16:18:06.564Z,40.89
2022-09-21T16:20:57.014Z,42.23
2022-09-21T16:23:29.955Z,43.57
2022-09-21T16:25:58.383Z,43.01
2022-09-21T16:28:33.859Z,45.14
2022-09-21T16:31:00.380Z,45.18
2022-09-21T16:33:38.449Z,46.23
2022-09-21T16:36:26.067Z,45.03
2022-09-21T16:38:53.790Z,46.64
2022-09-21T16:41:21.106Z,46.22
2022-09-21T16:43:47.891Z,45.85
2022-09-21T16:46:14.288Z,47.06
2022-09-21T16:48:40.669Z,45.62
2022-09-21T16:51:11.217Z,46.57
2022-09-21T16:53:37.567Z,48.06
2022-09-21T16:56:05.636Z,47.93
2022-09-21T16:58:32.041Z,47.46
2022-09-21T17:01:00.868Z,48.29
2022-09-21T17:03:27.508Z,48.55
2022-09-21T17:05:53.876Z,47.65
2022-09-21T17:08:20.346Z,48.20
2022-09-21T17:10:46.695Z,48.82
2022-09-21T17:13:14.368Z,50.34
2022-09-21T17:15:46.829Z,49.99
2022-09-21T17:18:13.422Z,51.18
2022-09-21T17:20:41.329Z,51.10
2022-09-21T17:23:07.830Z,52.78
2022-09-21T17:25:35.293Z,53.84
2022-09-21T17:28:03.313Z,52.61
2022-09-21T17:30:30.993Z,53.36
2022-09-21T17:32:57.423Z,54.00
2022-09-21T17:35:29.730Z,55.69
2022-09-21T17:37:56.284Z,55.82
2022-09-21T17:40:23.443Z,56.13
2022-09-21T17:42:50.754Z,55.72
2022-09-21T17:45:25.185Z,55.89
2022-09-21T17:47:53.534Z,57.16
2022-09-21T17:50:25.829Z,58.57
2022-09-21T17:52:53.384Z,59.53
2022-09-21T17:55:20.174Z,59.33
2022-09-21T17:57:56.041Z,59.85
2022-09-21T18:00:24.772Z,60.67
2022-09-21T18:02:54.365Z,60.04
2022-09-21T18:05:24.298Z,60.70
2022-09-21T18:07:51.543Z,59.72
2022-09-21T18:10:19.090Z,62.09
2022-09-21T18:13:15.790Z,60.78
2022-09-21T18:15:54.379Z,61.38
2022-09-21T18:18:42.844Z,61.82
2022-09-21T18:21:16.527Z,61.13
2022-09-21T18:23:47.042Z,61.63
2022-09-21T18:26:13.857Z,60.62
2022-09-21T18:28:42.903Z,60.85
2022-09-21T18:31:41.643Z,61.78
2022-09-21T18:34:22.881Z,62.58
2022-09-21T18:36:57.664Z,61.51
2022-09-21T18:39:35.254Z,61.82
2022-09-21T18:42:28.077Z,63.23
2022-09-21T18:45:00.144Z,62.55
2022-09-21T18:47:33.656Z,62.48
2022-09-21T18:50:07.832Z,63.02
2022-09-21T18:52:46.689Z,63.37
2022-09-21T18:55:23.577Z,62.49
2022-09-21T18:57:50.707Z,63.48
2022-09-21T19:00:18.494Z,62.49
2022-09-21T19:03:12.276Z,62.62
2022-09-21T19:05:34.110Z,63.44
2022-09-21T19:08:08.016Z,63.52
2022-09-21T19:10:38.154Z,62.89
2022-09-21T19:13:30.315Z,63.64
2022-09-21T19:16:07.644Z,62.23
2022-09-21T19:18:42.767Z,63.53
2022-09-21T19:21:20.647Z,63.54
2022-09-21T19:24:11.732Z,63.25
2022-09-21T19:26:47.359Z,64.24
2022-09-21T19:29:38.543Z,63.76
2022-09-21T19:32:13.827Z,65.07
2022-09-21T19:34:40.623Z,63.98
2022-09-21T19:37:08.635Z,63.59
2022-09-21T19:39:35.463Z,64.27
2022-09-21T19:42:09.883Z,63.96
2022-09-21T19:45:01.905Z,63.86
2022-09-21T19:47:30.280Z,65.15
2022-09-21T19:50:11.672Z,65.02
2022-09-21T19:52:39.999Z,65.78
2022-09-21T19:55:13.586Z,65.41
2022-09-21T19:57:40.754Z,65.03
2022-09-21T20:00:09.709Z,64.97
2022-09-21T20:02:41.541Z,64.56
2022-09-21T20:05:11.947Z,64.53
2022-09-21T20:07:47.198Z,66.90
2022-09-21T20:10:34.281Z,65.18
2022-09-21T20:13:12.346Z,65.88
2022-09-21T20:15:42.443Z,65.88
2022-09-21T20:18:16.757Z,65.73
2022-09-21T20:20:43.380Z,65.74
2022-09-21T20:23:12.926Z,66.38
2022-09-21T20:25:48.638Z,66.21
2022-09-21T20:28:15.834Z,67.31
2022-09-21T20:30:42.281Z,67.69
2022-09-21T20:33:12.418Z,68.01
2022-09-21T20:35:38.837Z,69.89
2022-09-21T20:38:05.239Z,69.84
2022-09-21T20:40:33.169Z,68.27
2022-09-21T20:42:59.843Z,67.80
2022-09-21T20:45:27.035Z,66.96
2022-09-21T20:47:54.476Z,67.72
2022-09-21T20:50:21.892Z,69.09
2022-09-21T20:52:48.256Z,68.27
2022-09-21T20:55:16.604Z,67.51
2022-09-21T20:57:44.336Z,67.55
2022-09-21T21:00:13.521Z,69.01
2022-09-21T21:02:40.425Z,69.13
2022-09-21T21:05:08.349Z,69.20
2022-09-21T21:07:34.995Z,68.17
2022-09-21T21:10:01.610Z,67.00
2022-09-21T21:12:27.983Z,67.24
2022-09-21T21:14:55.770Z,67.53
2022-09-21T21:17:22.155Z,67.17
2022-09-21T21:19:48.563Z,67.99
2022-09-21T21:22:14.970Z,68.28
2022-09-21T21:24:41.406Z,68.29
2022-09-21T21:27:12.228Z,68.20
2022-09-21T21:29:38.598Z,68.68
2022-09-21T21:32:06.594Z,68.75
2022-09-21T21:34:32.983Z,68.09
2022-09-21T21:36:59.411Z,67.50
2022-09-21T21:39:25.919Z,69.17
2022-09-21T21:41:52.275Z,68.86
2022-09-21T21:44:18.647Z,68.60
2022-09-21T21:46:45.050Z,68.64
2022-09-21T21:49:12.771Z,69.91
2022-09-21T21:51:39.167Z,69.27
2022-09-21T21:54:05.745Z,70.69
2022-09-21T21:56:32.127Z,69.08
2022-09-21T21:58:58.551Z,70.12
2022-09-21T22:01:27.974Z,68.92
2022-09-21T22:03:57.672Z,70.18
2022-09-21T22:06:26.701Z,70.04
2022-09-21T22:08:54.359Z,69.97
2022-09-21T22:11:21.238Z,70.29
2022-09-21T22:13:48.203Z,68.69
2022-09-21T22:16:16.911Z,68.52
2022-09-21T22:18:44.211Z,68.48
2022-09-21T22:21:11.852Z,67.41
2022-09-21T22:23:40.187Z,68.44
2022-09-21T22:26:08.921Z,68.52
2022-09-21T22:28:36.161Z,70.22
2022-09-21T22:31:07.907Z,70.51
2022-09-21T22:33:34.758Z,70.66
2022-09-21T22:36:02.576Z,70.18
2022-09-21T22:38:28.944Z,70.02
2022-09-21T22:40:56.726Z,69.39
2022-09-21T22:43:23.194Z,69.65
2022-09-21T22:45:49.567Z,68.93
2022-09-21T22:48:15.927Z,70.34
2022-09-21T22:50:43.195Z,70.04
2022-09-21T22:53:09.572Z,69.58
2022-09-21T22:55:36.118Z,70.73
2022-09-21T22:58:03.812Z,69.71
2022-09-21T23:00:30.212Z,71.06
2022-09-21T23:02:56.890Z,70.50
2022-09-21T23:05:23.280Z,71.91
2022-09-21T23:07:50.805Z,74.06
2022-09-21T23:10:17.300Z,74.24
2022-09-21T23:12:43.746Z,71.80
2022-09-21T23:15:11.544Z,71.07
2022-09-21T23:17:37.931Z,70.47
2022-09-21T23:20:05.121Z,68.99
2022-09-21T23:22:31.500Z,68.72
2022-09-21T23:24:57.853Z,68.73
2022-09-21T23:27:24.200Z,68.89
2022-09-21T23:29:50.616Z,68.87
2022-09-21T23:32:18.269Z,69.63
2022-09-21T23:34:44.626Z,69.03
2022-09-21T23:37:10.974Z,68.73
2022-09-21T23:39:37.330Z,69.80
2022-09-21T23:42:03.964Z,68.54
2022-09-21T23:44:30.318Z,68.90
2022-09-21T23:46:56.682Z,69.30
2022-09-21T23:49:24.464Z,69.44
2022-09-21T23:51:50.803Z,69.18
2022-09-21T23:54:17.158Z,69.27
2022-09-21T23:56:43.747Z,69.18
2022-09-21T23:59:10.107Z,69.67
